sensor_id;sensor_type;location;lat;lon;timestamp;temperature;humidity
19359;DHT22;9815;52.334;20.890;2023-08-20T00:01:30;19.60;99.90
19359;DHT22;9815;52.334;20.890;2023-08-20T00:03:59;19.60;99.90
19359;DHT22;9815;52.334;20.890;2023-08-20T00:06:28;19.60;99.90
19359;DHT22;9815;52.334;20.890;2023-08-20T00:08:56;19.60;99.90
19359;DHT22;9815;52.334;20.890;2023-08-20T00:11:24;19.60;99.90
19359;DHT22;9815;52.334;20.890;2023-08-20T00:13:53;19.60;99.90
19359;DHT22;9815;52.334;20.890;2023-08-20T00:16:23;19.50;99.90
19359;DHT22;9815;52.334;20.890;2023-08-20T00:18:52;19.50;99.90
19359;DHT22;9815;52.334;20.890;2023-08-20T00:21:20;19.50;99.90
19359;DHT22;9815;52.334;20.890;2023-08-20T00:23:49;19.50;99.90
19359;DHT22;9815;52.334;20.890;2023-08-20T00:26:18;19.60;99.90
19359;DHT22;9815;52.334;20.890;2023-08-20T00:28:46;19.50;99.90
19359;DHT22;9815;52.334;20.890;2023-08-20T00:31:14;19.50;99.90
19359;DHT22;9815;52.334;20.890;2023-08-20T00:33:45;19.60;99.90
19359;DHT22;9815;52.334;20.890;2023-08-20T00:36:31;19.50;99.90
19359;DHT22;9815;52.334;20.890;2023-08-20T00:38:59;19.50;99.90
19359;DHT22;9815;52.334;20.890;2023-08-20T00:41:27;19.50;99.90
19359;DHT22;9815;52.334;20.890;2023-08-20T00:43:56;19.40;99.90
19359;DHT22;9815;52.334;20.890;2023-08-20T00:46:24;19.40;99.90
19359;DHT22;9815;52.334;20.890;2023-08-20T00:48:54;19.40;99.90
19359;DHT22;9815;52.334;20.890;2023-08-20T00:51:23;19.40;99.90
19359;DHT22;9815;52.334;20.890;2023-08-20T00:53:51;19.30;99.90
19359;DHT22;9815;52.334;20.890;2023-08-20T00:56:20;19.30;99.90
19359;DHT22;9815;52.334;20.890;2023-08-20T00:58:48;19.30;99.90
19359;DHT22;9815;52.334;20.890;2023-08-20T01:01:16;19.30;99.90
19359;DHT22;9815;52.334;20.890;2023-08-20T01:03:45;19.30;99.90
19359;DHT22;9815;52.334;20.890;2023-08-20T01:06:26;19.30;99.90
19359;DHT22;9815;52.334;20.890;2023-08-20T01:09:04;19.40;99.90
19359;DHT22;9815;52.334;20.890;2023-08-20T01:11:37;19.30;99.90
19359;DHT22;9815;52.334;20.890;2023-08-20T01:14:14;19.30;99.90
19359;DHT22;9815;52.334;20.890;2023-08-20T01:16:43;19.30;99.90
19359;DHT22;9815;52.334;20.890;2023-08-20T01:19:17;19.30;99.90
19359;DHT22;9815;52.334;20.890;2023-08-20T01:21:54;19.30;99.90
19359;DHT22;9815;52.334;20.890;2023-08-20T01:24:38;19.30;99.90
19359;DHT22;9815;52.334;20.890;2023-08-20T01:27:15;19.30;99.90
19359;DHT22;9815;52.334;20.890;2023-08-20T01:29:49;19.30;99.90
19359;DHT22;9815;52.334;20.890;2023-08-20T01:32:18;19.20;99.90
19359;DHT22;9815;52.334;20.890;2023-08-20T01:34:47;19.30;99.90
19359;DHT22;9815;52.334;20.890;2023-08-20T01:37:16;19.30;99.90
19359;DHT22;9815;52.334;20.890;2023-08-20T01:39:44;19.30;99.90
19359;DHT22;9815;52.334;20.890;2023-08-20T01:42:13;19.30;99.90
19359;DHT22;9815;52.334;20.890;2023-08-20T01:44:41;19.20;99.90
19359;DHT22;9815;52.334;20.890;2023-08-20T01:47:11;19.20;99.90
19359;DHT22;9815;52.334;20.890;2023-08-20T01:49:39;19.20;99.90
19359;DHT22;9815;52.334;20.890;2023-08-20T01:52:07;19.10;99.90
19359;DHT22;9815;52.334;20.890;2023-08-20T01:54:35;19.10;99.90
19359;DHT22;9815;52.334;20.890;2023-08-20T01:57:04;19.10;99.90
19359;DHT22;9815;52.334;20.890;2023-08-20T01:59:32;19.10;99.90
19359;DHT22;9815;52.334;20.890;2023-08-20T02:02:00;19.10;99.90
19359;DHT22;9815;52.334;20.890;2023-08-20T02:04:30;19.10;99.90
19359;DHT22;9815;52.334;20.890;2023-08-20T02:06:59;19.10;99.90
19359;DHT22;9815;52.334;20.890;2023-08-20T02:09:27;19.00;99.90
19359;DHT22;9815;52.334;20.890;2023-08-20T02:11:56;19.00;99.90
19359;DHT22;9815;52.334;20.890;2023-08-20T02:14:24;19.00;99.90
19359;DHT22;9815;52.334;20.890;2023-08-20T02:16:54;19.00;99.90
19359;DHT22;9815;52.334;20.890;2023-08-20T02:19:24;19.10;99.90
19359;DHT22;9815;52.334;20.890;2023-08-20T02:21:54;19.00;99.90
19359;DHT22;9815;52.334;20.890;2023-08-20T02:24:22;19.00;99.90
19359;DHT22;9815;52.334;20.890;2023-08-20T02:26:50;19.00;99.90
19359;DHT22;9815;52.334;20.890;2023-08-20T02:29:19;18.90;99.90
19359;DHT22;9815;52.334;20.890;2023-08-20T02:31:47;19.00;99.90
19359;DHT22;9815;52.334;20.890;2023-08-20T02:34:16;19.00;99.90
19359;DHT22;9815;52.334;20.890;2023-08-20T02:36:46;19.00;99.90
19359;DHT22;9815;52.334;20.890;2023-08-20T02:39:16;19.00;99.90
19359;DHT22;9815;52.334;20.890;2023-08-20T02:41:45;18.90;99.90
19359;DHT22;9815;52.334;20.890;2023-08-20T02:44:13;18.90;99.90
19359;DHT22;9815;52.334;20.890;2023-08-20T02:46:41;18.90;99.90
19359;DHT22;9815;52.334;20.890;2023-08-20T02:49:11;18.90;99.90
19359;DHT22;9815;52.334;20.890;2023-08-20T02:51:43;18.90;99.90
19359;DHT22;9815;52.334;20.890;2023-08-20T02:54:11;18.90;99.90
19359;DHT22;9815;52.334;20.890;2023-08-20T02:56:41;18.90;99.90
19359;DHT22;9815;52.334;20.890;2023-08-20T02:59:10;18.90;99.90
19359;DHT22;9815;52.334;20.890;2023-08-20T03:01:38;18.90;99.90
19359;DHT22;9815;52.334;20.890;2023-08-20T03:04:06;18.90;99.90
19359;DHT22;9815;52.334;20.890;2023-08-20T03:06:34;18.80;99.90
19359;DHT22;9815;52.334;20.890;2023-08-20T03:09:03;18.80;99.90
19359;DHT22;9815;52.334;20.890;2023-08-20T03:11:32;18.80;99.90
19359;DHT22;9815;52.334;20.890;2023-08-20T03:14:02;18.80;99.90
19359;DHT22;9815;52.334;20.890;2023-08-20T03:16:31;18.90;99.90
19359;DHT22;9815;52.334;20.890;2023-08-20T03:18:59;18.80;99.90
19359;DHT22;9815;52.334;20.890;2023-08-20T03:21:27;18.80;99.90
19359;DHT22;9815;52.334;20.890;2023-08-20T03:23:56;18.80;99.90
19359;DHT22;9815;52.334;20.890;2023-08-20T03:26:24;18.80;99.90
19359;DHT22;9815;52.334;20.890;2023-08-20T03:28:52;18.80;99.90
19359;DHT22;9815;52.334;20.890;2023-08-20T03:31:22;18.80;99.90
19359;DHT22;9815;52.334;20.890;2023-08-20T03:33:50;18.80;99.90
19359;DHT22;9815;52.334;20.890;2023-08-20T03:36:19;18.80;99.90
19359;DHT22;9815;52.334;20.890;2023-08-20T03:38:47;18.90;99.90
19359;DHT22;9815;52.334;20.890;2023-08-20T03:41:15;18.90;99.90
19359;DHT22;9815;52.334;20.890;2023-08-20T03:43:45;18.90;99.90
19359;DHT22;9815;52.334;20.890;2023-08-20T03:46:13;18.90;99.90
19359;DHT22;9815;52.334;20.890;2023-08-20T03:48:44;18.90;99.90
19359;DHT22;9815;52.334;20.890;2023-08-20T03:51:12;18.90;99.90
19359;DHT22;9815;52.334;20.890;2023-08-20T03:53:41;18.90;99.90
19359;DHT22;9815;52.334;20.890;2023-08-20T03:56:10;18.90;99.90
19359;DHT22;9815;52.334;20.890;2023-08-20T03:58:39;18.90;99.90
19359;DHT22;9815;52.334;20.890;2023-08-20T04:01:07;18.90;99.90
19359;DHT22;9815;52.334;20.890;2023-08-20T04:03:35;18.90;99.90
19359;DHT22;9815;52.334;20.890;2023-08-20T04:06:05;18.90;99.90
19359;DHT22;9815;52.334;20.890;2023-08-20T04:08:36;19.00;99.90
19359;DHT22;9815;52.334;20.890;2023-08-20T04:11:04;19.00;99.90
19359;DHT22;9815;52.334;20.890;2023-08-20T04:13:32;18.90;99.90
19359;DHT22;9815;52.334;20.890;2023-08-20T04:16:02;18.90;99.90
19359;DHT22;9815;52.334;20.890;2023-08-20T04:18:30;18.90;99.90
19359;DHT22;9815;52.334;20.890;2023-08-20T04:20:59;18.90;99.90
19359;DHT22;9815;52.334;20.890;2023-08-20T04:23:28;19.00;99.90
19359;DHT22;9815;52.334;20.890;2023-08-20T04:25:56;18.90;99.90
19359;DHT22;9815;52.334;20.890;2023-08-20T04:28:25;19.00;99.90
19359;DHT22;9815;52.334;20.890;2023-08-20T04:30:53;19.00;99.90
19359;DHT22;9815;52.334;20.890;2023-08-20T04:33:27;19.00;99.90
19359;DHT22;9815;52.334;20.890;2023-08-20T04:35:55;19.10;99.90
19359;DHT22;9815;52.334;20.890;2023-08-20T04:38:23;19.10;99.90
19359;DHT22;9815;52.334;20.890;2023-08-20T04:40:53;19.20;99.90
19359;DHT22;9815;52.334;20.890;2023-08-20T04:43:23;19.30;99.90
19359;DHT22;9815;52.334;20.890;2023-08-20T04:45:51;19.30;99.90
19359;DHT22;9815;52.334;20.890;2023-08-20T04:48:21;19.40;99.90
19359;DHT22;9815;52.334;20.890;2023-08-20T04:50:50;19.40;99.90
19359;DHT22;9815;52.334;20.890;2023-08-20T04:53:18;19.50;99.90
19359;DHT22;9815;52.334;20.890;2023-08-20T04:55:47;19.50;99.90
19359;DHT22;9815;52.334;20.890;2023-08-20T04:58:17;19.60;99.90
19359;DHT22;9815;52.334;20.890;2023-08-20T05:00:45;19.70;99.90
19359;DHT22;9815;52.334;20.890;2023-08-20T05:03:14;19.70;99.90
19359;DHT22;9815;52.334;20.890;2023-08-20T05:05:48;19.70;99.90
19359;DHT22;9815;52.334;20.890;2023-08-20T05:08:16;19.80;99.90
19359;DHT22;9815;52.334;20.890;2023-08-20T05:10:45;19.80;99.90
19359;DHT22;9815;52.334;20.890;2023-08-20T05:13:13;19.90;99.90
19359;DHT22;9815;52.334;20.890;2023-08-20T05:15:43;20.00;99.90
19359;DHT22;9815;52.334;20.890;2023-08-20T05:18:11;20.10;99.90
19359;DHT22;9815;52.334;20.890;2023-08-20T05:20:40;20.10;99.90
19359;DHT22;9815;52.334;20.890;2023-08-20T05:23:08;20.20;99.90
19359;DHT22;9815;52.334;20.890;2023-08-20T05:25:37;20.20;99.90
19359;DHT22;9815;52.334;20.890;2023-08-20T05:28:05;20.30;99.90
19359;DHT22;9815;52.334;20.890;2023-08-20T05:30:34;20.40;99.90
19359;DHT22;9815;52.334;20.890;2023-08-20T05:33:04;20.40;99.90
19359;DHT22;9815;52.334;20.890;2023-08-20T05:35:36;20.50;99.90
19359;DHT22;9815;52.334;20.890;2023-08-20T05:38:04;20.60;99.90
19359;DHT22;9815;52.334;20.890;2023-08-20T05:40:33;20.70;99.90
19359;DHT22;9815;52.334;20.890;2023-08-20T05:43:01;20.70;99.90
19359;DHT22;9815;52.334;20.890;2023-08-20T05:45:30;20.80;99.90
19359;DHT22;9815;52.334;20.890;2023-08-20T05:47:59;20.90;99.90
19359;DHT22;9815;52.334;20.890;2023-08-20T05:50:29;21.00;99.90
19359;DHT22;9815;52.334;20.890;2023-08-20T05:52:58;21.10;99.90
19359;DHT22;9815;52.334;20.890;2023-08-20T05:55:27;21.10;99.90
19359;DHT22;9815;52.334;20.890;2023-08-20T05:57:56;21.20;99.90
19359;DHT22;9815;52.334;20.890;2023-08-20T06:00:24;21.30;99.90
19359;DHT22;9815;52.334;20.890;2023-08-20T06:02:52;21.30;99.90
19359;DHT22;9815;52.334;20.890;2023-08-20T06:05:21;21.40;99.90
19359;DHT22;9815;52.334;20.890;2023-08-20T06:07:51;21.40;99.90
19359;DHT22;9815;52.334;20.890;2023-08-20T06:10:19;21.50;99.90
19359;DHT22;9815;52.334;20.890;2023-08-20T06:12:47;21.60;99.90
19359;DHT22;9815;52.334;20.890;2023-08-20T06:15:15;21.60;99.90
19359;DHT22;9815;52.334;20.890;2023-08-20T06:17:44;21.70;99.90
19359;DHT22;9815;52.334;20.890;2023-08-20T06:20:12;21.80;99.90
19359;DHT22;9815;52.334;20.890;2023-08-20T06:22:40;21.90;99.90
19359;DHT22;9815;52.334;20.890;2023-08-20T06:25:10;21.90;99.90
19359;DHT22;9815;52.334;20.890;2023-08-20T06:27:38;21.90;99.90
19359;DHT22;9815;52.334;20.890;2023-08-20T06:30:08;21.90;99.90
19359;DHT22;9815;52.334;20.890;2023-08-20T06:32:36;22.00;99.90
19359;DHT22;9815;52.334;20.890;2023-08-20T06:35:06;22.00;99.90
19359;DHT22;9815;52.334;20.890;2023-08-20T06:37:36;22.20;99.90
19359;DHT22;9815;52.334;20.890;2023-08-20T06:40:05;22.30;99.90
19359;DHT22;9815;52.334;20.890;2023-08-20T06:42:35;22.30;99.90
19359;DHT22;9815;52.334;20.890;2023-08-20T06:45:07;22.40;99.90
19359;DHT22;9815;52.334;20.890;2023-08-20T06:47:36;22.50;99.90
19359;DHT22;9815;52.334;20.890;2023-08-20T06:50:06;22.50;99.90
19359;DHT22;9815;52.334;20.890;2023-08-20T06:52:34;22.60;99.90
19359;DHT22;9815;52.334;20.890;2023-08-20T06:55:03;22.70;99.90
19359;DHT22;9815;52.334;20.890;2023-08-20T06:57:31;22.80;99.90
19359;DHT22;9815;52.334;20.890;2023-08-20T07:00:02;22.80;99.90
19359;DHT22;9815;52.334;20.890;2023-08-20T07:02:31;22.90;99.90
19359;DHT22;9815;52.334;20.890;2023-08-20T07:05:00;22.90;99.90
19359;DHT22;9815;52.334;20.890;2023-08-20T07:07:28;23.00;99.90
19359;DHT22;9815;52.334;20.890;2023-08-20T07:09:57;23.10;99.90
19359;DHT22;9815;52.334;20.890;2023-08-20T07:12:25;23.10;99.90
19359;DHT22;9815;52.334;20.890;2023-08-20T07:14:53;23.20;99.90
19359;DHT22;9815;52.334;20.890;2023-08-20T07:17:23;23.20;99.90
19359;DHT22;9815;52.334;20.890;2023-08-20T07:19:52;23.20;99.90
19359;DHT22;9815;52.334;20.890;2023-08-20T07:22:20;23.20;99.90
19359;DHT22;9815;52.334;20.890;2023-08-20T07:24:48;23.30;99.90
19359;DHT22;9815;52.334;20.890;2023-08-20T07:27:17;23.40;99.90
19359;DHT22;9815;52.334;20.890;2023-08-20T07:29:45;23.50;99.90
19359;DHT22;9815;52.334;20.890;2023-08-20T07:32:13;23.60;99.90
19359;DHT22;9815;52.334;20.890;2023-08-20T07:34:43;23.80;99.90
19359;DHT22;9815;52.334;20.890;2023-08-20T07:37:12;23.90;99.90
19359;DHT22;9815;52.334;20.890;2023-08-20T07:39:41;23.90;99.90
19359;DHT22;9815;52.334;20.890;2023-08-20T07:42:09;24.00;99.90
19359;DHT22;9815;52.334;20.890;2023-08-20T07:44:37;24.00;99.90
19359;DHT22;9815;52.334;20.890;2023-08-20T07:47:06;24.00;99.90
19359;DHT22;9815;52.334;20.890;2023-08-20T07:49:34;24.10;99.90
19359;DHT22;9815;52.334;20.890;2023-08-20T07:52:04;24.10;99.90
19359;DHT22;9815;52.334;20.890;2023-08-20T07:54:32;24.30;99.90
19359;DHT22;9815;52.334;20.890;2023-08-20T07:57:01;24.50;99.90
19359;DHT22;9815;52.334;20.890;2023-08-20T07:59:29;24.60;99.90
19359;DHT22;9815;52.334;20.890;2023-08-20T08:01:57;24.80;99.90
19359;DHT22;9815;52.334;20.890;2023-08-20T08:04:26;24.90;99.90
19359;DHT22;9815;52.334;20.890;2023-08-20T08:06:54;25.10;99.90
19359;DHT22;9815;52.334;20.890;2023-08-20T08:09:28;25.20;99.90
19359;DHT22;9815;52.334;20.890;2023-08-20T08:11:57;25.20;99.90
19359;DHT22;9815;52.334;20.890;2023-08-20T08:14:26;25.40;99.90
19359;DHT22;9815;52.334;20.890;2023-08-20T08:16:54;25.60;99.90
19359;DHT22;9815;52.334;20.890;2023-08-20T08:19:22;25.90;99.90
19359;DHT22;9815;52.334;20.890;2023-08-20T08:21:51;26.00;99.90
19359;DHT22;9815;52.334;20.890;2023-08-20T08:24:19;26.10;99.90
19359;DHT22;9815;52.334;20.890;2023-08-20T08:26:49;26.30;99.90
19359;DHT22;9815;52.334;20.890;2023-08-20T08:29:17;26.50;99.90
19359;DHT22;9815;52.334;20.890;2023-08-20T08:31:45;26.50;99.90
19359;DHT22;9815;52.334;20.890;2023-08-20T08:34:14;26.70;99.90
19359;DHT22;9815;52.334;20.890;2023-08-20T08:36:42;26.90;99.90
19359;DHT22;9815;52.334;20.890;2023-08-20T08:39:12;27.00;99.90
19359;DHT22;9815;52.334;20.890;2023-08-20T08:41:42;27.00;99.90
19359;DHT22;9815;52.334;20.890;2023-08-20T08:44:12;26.90;99.90
19359;DHT22;9815;52.334;20.890;2023-08-20T08:46:40;26.90;99.90
19359;DHT22;9815;52.334;20.890;2023-08-20T08:49:09;27.00;99.90
19359;DHT22;9815;52.334;20.890;2023-08-20T08:51:38;27.30;99.90
19359;DHT22;9815;52.334;20.890;2023-08-20T08:54:12;27.50;99.90
19359;DHT22;9815;52.334;20.890;2023-08-20T08:56:41;27.70;99.90
19359;DHT22;9815;52.334;20.890;2023-08-20T08:59:11;27.90;99.90
19359;DHT22;9815;52.334;20.890;2023-08-20T09:01:40;27.90;99.90
19359;DHT22;9815;52.334;20.890;2023-08-20T09:04:08;27.90;99.90
19359;DHT22;9815;52.334;20.890;2023-08-20T09:06:46;27.70;99.90
19359;DHT22;9815;52.334;20.890;2023-08-20T09:09:16;27.70;99.90
19359;DHT22;9815;52.334;20.890;2023-08-20T09:11:44;27.90;99.90
19359;DHT22;9815;52.334;20.890;2023-08-20T09:14:22;28.00;99.90
19359;DHT22;9815;52.334;20.890;2023-08-20T09:16:55;28.30;99.90
19359;DHT22;9815;52.334;20.890;2023-08-20T09:19:24;28.60;99.90
19359;DHT22;9815;52.334;20.890;2023-08-20T09:21:52;28.80;99.30
19359;DHT22;9815;52.334;20.890;2023-08-20T09:24:31;28.80;95.20
19359;DHT22;9815;52.334;20.890;2023-08-20T09:27:03;29.00;91.60
19359;DHT22;9815;52.334;20.890;2023-08-20T09:29:33;29.10;92.70
19359;DHT22;9815;52.334;20.890;2023-08-20T09:32:14;29.10;74.10
19359;DHT22;9815;52.334;20.890;2023-08-20T09:34:43;29.20;75.30
19359;DHT22;9815;52.334;20.890;2023-08-20T09:37:13;29.70;72.80
19359;DHT22;9815;52.334;20.890;2023-08-20T09:39:42;30.00;77.70
19359;DHT22;9815;52.334;20.890;2023-08-20T09:42:11;30.40;57.90
19359;DHT22;9815;52.334;20.890;2023-08-20T09:44:42;30.40;58.00
19359;DHT22;9815;52.334;20.890;2023-08-20T09:47:12;30.60;60.20
19359;DHT22;9815;52.334;20.890;2023-08-20T09:49:42;30.60;46.80
19359;DHT22;9815;52.334;20.890;2023-08-20T09:52:16;30.70;45.10
19359;DHT22;9815;52.334;20.890;2023-08-20T09:54:59;30.90;44.50
19359;DHT22;9815;52.334;20.890;2023-08-20T09:57:33;30.80;40.70
19359;DHT22;9815;52.334;20.890;2023-08-20T10:00:04;30.80;42.60
19359;DHT22;9815;52.334;20.890;2023-08-20T10:02:40;30.40;41.10
19359;DHT22;9815;52.334;20.890;2023-08-20T10:05:10;30.50;58.70
19359;DHT22;9815;52.334;20.890;2023-08-20T10:07:39;30.90;49.50
19359;DHT22;9815;52.334;20.890;2023-08-20T10:10:09;31.10;38.70
19359;DHT22;9815;52.334;20.890;2023-08-20T10:12:41;31.10;35.30
19359;DHT22;9815;52.334;20.890;2023-08-20T10:15:12;31.40;33.30
19359;DHT22;9815;52.334;20.890;2023-08-20T10:17:43;31.20;33.20
19359;DHT22;9815;52.334;20.890;2023-08-20T10:20:14;31.60;34.40
19359;DHT22;9815;52.334;20.890;2023-08-20T10:22:45;31.90;33.50
19359;DHT22;9815;52.334;20.890;2023-08-20T10:25:23;32.20;32.30
19359;DHT22;9815;52.334;20.890;2023-08-20T10:27:52;32.20;31.40
19359;DHT22;9815;52.334;20.890;2023-08-20T10:30:25;32.50;30.00
19359;DHT22;9815;52.334;20.890;2023-08-20T10:32:56;31.70;32.20
19359;DHT22;9815;52.334;20.890;2023-08-20T10:35:30;30.80;37.40
19359;DHT22;9815;52.334;20.890;2023-08-20T10:38:15;30.70;35.80
19359;DHT22;9815;52.334;20.890;2023-08-20T10:40:53;31.10;34.90
19359;DHT22;9815;52.334;20.890;2023-08-20T10:43:29;31.60;29.80
19359;DHT22;9815;52.334;20.890;2023-08-20T10:46:07;32.00;30.60
19359;DHT22;9815;52.334;20.890;2023-08-20T10:48:37;32.20;29.80
19359;DHT22;9815;52.334;20.890;2023-08-20T10:51:08;32.60;29.10
19359;DHT22;9815;52.334;20.890;2023-08-20T10:53:37;32.60;29.00
19359;DHT22;9815;52.334;20.890;2023-08-20T10:56:10;32.80;28.60
19359;DHT22;9815;52.334;20.890;2023-08-20T10:58:41;32.80;29.20
19359;DHT22;9815;52.334;20.890;2023-08-20T11:01:19;32.40;27.70
19359;DHT22;9815;52.334;20.890;2023-08-20T11:03:49;32.40;28.30
19359;DHT22;9815;52.334;20.890;2023-08-20T11:06:18;32.10;28.80
19359;DHT22;9815;52.334;20.890;2023-08-20T11:08:47;32.50;27.40
19359;DHT22;9815;52.334;20.890;2023-08-20T11:11:23;32.70;28.10
19359;DHT22;9815;52.334;20.890;2023-08-20T11:13:52;33.00;26.60
19359;DHT22;9815;52.334;20.890;2023-08-20T11:16:21;33.10;28.50
19359;DHT22;9815;52.334;20.890;2023-08-20T11:18:51;32.50;27.60
19359;DHT22;9815;52.334;20.890;2023-08-20T11:21:20;32.00;27.40
19359;DHT22;9815;52.334;20.890;2023-08-20T11:23:49;32.10;28.90
19359;DHT22;9815;52.334;20.890;2023-08-20T11:26:17;32.20;27.40
19359;DHT22;9815;52.334;20.890;2023-08-20T11:28:46;32.50;27.60
19359;DHT22;9815;52.334;20.890;2023-08-20T11:31:14;32.80;28.20
19359;DHT22;9815;52.334;20.890;2023-08-20T11:33:44;32.80;26.30
19359;DHT22;9815;52.334;20.890;2023-08-20T11:36:14;33.10;27.70
19359;DHT22;9815;52.334;20.890;2023-08-20T11:38:43;33.10;26.10
19359;DHT22;9815;52.334;20.890;2023-08-20T11:41:16;33.50;25.80
19359;DHT22;9815;52.334;20.890;2023-08-20T11:43:45;33.50;26.30
19359;DHT22;9815;52.334;20.890;2023-08-20T11:46:14;33.50;23.80
19359;DHT22;9815;52.334;20.890;2023-08-20T11:49:02;33.90;24.60
19359;DHT22;9815;52.334;20.890;2023-08-20T11:51:35;33.90;23.90
19359;DHT22;9815;52.334;20.890;2023-08-20T11:54:05;33.50;24.70
19359;DHT22;9815;52.334;20.890;2023-08-20T11:56:34;33.20;25.60
19359;DHT22;9815;52.334;20.890;2023-08-20T11:59:05;33.10;24.20
19359;DHT22;9815;52.334;20.890;2023-08-20T12:01:41;32.80;25.90
19359;DHT22;9815;52.334;20.890;2023-08-20T12:04:11;32.80;24.90
19359;DHT22;9815;52.334;20.890;2023-08-20T12:06:39;32.70;26.20
19359;DHT22;9815;52.334;20.890;2023-08-20T12:09:19;33.10;25.40
19359;DHT22;9815;52.334;20.890;2023-08-20T12:11:49;33.30;24.00
19359;DHT22;9815;52.334;20.890;2023-08-20T12:14:18;33.40;24.50
19359;DHT22;9815;52.334;20.890;2023-08-20T12:16:47;33.70;24.20
19359;DHT22;9815;52.334;20.890;2023-08-20T12:19:19;34.10;23.20
19359;DHT22;9815;52.334;20.890;2023-08-20T12:21:47;34.20;23.30
19359;DHT22;9815;52.334;20.890;2023-08-20T12:24:16;34.00;23.10
19359;DHT22;9815;52.334;20.890;2023-08-20T12:26:46;34.00;22.40
19359;DHT22;9815;52.334;20.890;2023-08-20T12:29:14;33.70;23.80
19359;DHT22;9815;52.334;20.890;2023-08-20T12:31:42;33.80;24.60
19359;DHT22;9815;52.334;20.890;2023-08-20T12:34:11;33.70;25.00
19359;DHT22;9815;52.334;20.890;2023-08-20T12:36:40;33.30;24.10
19359;DHT22;9815;52.334;20.890;2023-08-20T12:39:09;32.60;24.60
19359;DHT22;9815;52.334;20.890;2023-08-20T12:41:37;32.60;26.00
19359;DHT22;9815;52.334;20.890;2023-08-20T12:44:05;32.10;27.60
19359;DHT22;9815;52.334;20.890;2023-08-20T12:46:34;31.70;27.80
19359;DHT22;9815;52.334;20.890;2023-08-20T12:49:03;31.40;27.00
19359;DHT22;9815;52.334;20.890;2023-08-20T12:51:31;31.40;29.00
19359;DHT22;9815;52.334;20.890;2023-08-20T12:54:01;31.80;29.00
19359;DHT22;9815;52.334;20.890;2023-08-20T12:56:29;32.20;27.70
19359;DHT22;9815;52.334;20.890;2023-08-20T12:58:57;32.30;27.70
19359;DHT22;9815;52.334;20.890;2023-08-20T13:01:25;32.30;27.10
19359;DHT22;9815;52.334;20.890;2023-08-20T13:03:54;32.40;27.50
19359;DHT22;9815;52.334;20.890;2023-08-20T13:06:23;32.70;26.90
19359;DHT22;9815;52.334;20.890;2023-08-20T13:08:52;32.80;26.10
19359;DHT22;9815;52.334;20.890;2023-08-20T13:11:25;32.60;25.50
19359;DHT22;9815;52.334;20.890;2023-08-20T13:13:58;32.40;26.50
19359;DHT22;9815;52.334;20.890;2023-08-20T13:16:27;32.60;27.70
19359;DHT22;9815;52.334;20.890;2023-08-20T13:18:56;32.80;25.90
19359;DHT22;9815;52.334;20.890;2023-08-20T13:21:25;33.10;23.50
19359;DHT22;9815;52.334;20.890;2023-08-20T13:23:53;33.10;23.20
19359;DHT22;9815;52.334;20.890;2023-08-20T13:26:23;33.10;23.60
19359;DHT22;9815;52.334;20.890;2023-08-20T13:28:52;33.40;24.30
19359;DHT22;9815;52.334;20.890;2023-08-20T13:31:20;33.70;23.60
19359;DHT22;9815;52.334;20.890;2023-08-20T13:33:49;33.70;23.60
19359;DHT22;9815;52.334;20.890;2023-08-20T13:36:17;33.80;22.70
19359;DHT22;9815;52.334;20.890;2023-08-20T13:38:46;33.70;22.50
19359;DHT22;9815;52.334;20.890;2023-08-20T13:41:14;33.60;23.00
19359;DHT22;9815;52.334;20.890;2023-08-20T13:43:44;33.20;22.70
19359;DHT22;9815;52.334;20.890;2023-08-20T13:46:12;33.10;23.10
19359;DHT22;9815;52.334;20.890;2023-08-20T13:48:40;33.00;24.00
19359;DHT22;9815;52.334;20.890;2023-08-20T13:51:09;33.00;23.20
19359;DHT22;9815;52.334;20.890;2023-08-20T13:53:37;33.10;23.70
19359;DHT22;9815;52.334;20.890;2023-08-20T13:56:05;33.20;24.00
19359;DHT22;9815;52.334;20.890;2023-08-20T13:58:34;33.00;23.10
19359;DHT22;9815;52.334;20.890;2023-08-20T14:01:03;33.10;23.60
19359;DHT22;9815;52.334;20.890;2023-08-20T14:03:33;33.10;23.60
19359;DHT22;9815;52.334;20.890;2023-08-20T14:06:02;33.00;22.60
19359;DHT22;9815;52.334;20.890;2023-08-20T14:08:31;32.80;23.80
19359;DHT22;9815;52.334;20.890;2023-08-20T14:11:02;32.70;23.40
19359;DHT22;9815;52.334;20.890;2023-08-20T14:13:31;32.60;23.30
19359;DHT22;9815;52.334;20.890;2023-08-20T14:15:59;32.40;23.10
19359;DHT22;9815;52.334;20.890;2023-08-20T14:18:29;32.40;24.10
19359;DHT22;9815;52.334;20.890;2023-08-20T14:20:58;32.20;23.90
19359;DHT22;9815;52.334;20.890;2023-08-20T14:23:26;32.00;24.30
19359;DHT22;9815;52.334;20.890;2023-08-20T14:25:55;31.60;25.20
19359;DHT22;9815;52.334;20.890;2023-08-20T14:28:23;31.10;24.80
19359;DHT22;9815;52.334;20.890;2023-08-20T14:30:51;31.10;26.00
19359;DHT22;9815;52.334;20.890;2023-08-20T14:33:21;31.30;25.20
19359;DHT22;9815;52.334;20.890;2023-08-20T14:35:51;31.50;25.20
19359;DHT22;9815;52.334;20.890;2023-08-20T14:38:19;31.70;24.60
19359;DHT22;9815;52.334;20.890;2023-08-20T14:40:47;31.80;25.20
19359;DHT22;9815;52.334;20.890;2023-08-20T14:43:15;32.10;25.50
19359;DHT22;9815;52.334;20.890;2023-08-20T14:45:45;32.20;24.00
19359;DHT22;9815;52.334;20.890;2023-08-20T14:48:13;32.30;24.60
19359;DHT22;9815;52.334;20.890;2023-08-20T14:50:41;32.20;24.70
19359;DHT22;9815;52.334;20.890;2023-08-20T14:53:12;31.90;23.50
19359;DHT22;9815;52.334;20.890;2023-08-20T14:55:40;31.30;25.00
19359;DHT22;9815;52.334;20.890;2023-08-20T14:58:08;31.00;25.70
19359;DHT22;9815;52.334;20.890;2023-08-20T15:00:36;31.00;25.30
19359;DHT22;9815;52.334;20.890;2023-08-20T15:03:05;31.10;25.80
19359;DHT22;9815;52.334;20.890;2023-08-20T15:05:34;31.10;25.70
19359;DHT22;9815;52.334;20.890;2023-08-20T15:08:02;31.00;25.80
19359;DHT22;9815;52.334;20.890;2023-08-20T15:10:33;30.90;25.60
19359;DHT22;9815;52.334;20.890;2023-08-20T15:13:01;30.90;27.30
19359;DHT22;9815;52.334;20.890;2023-08-20T15:15:31;31.00;26.20
19359;DHT22;9815;52.334;20.890;2023-08-20T15:17:59;31.00;25.90
19359;DHT22;9815;52.334;20.890;2023-08-20T15:20:28;31.00;25.40
19359;DHT22;9815;52.334;20.890;2023-08-20T15:22:56;30.90;25.50
19359;DHT22;9815;52.334;20.890;2023-08-20T15:25:24;31.00;25.40
19359;DHT22;9815;52.334;20.890;2023-08-20T15:27:54;31.00;25.00
19359;DHT22;9815;52.334;20.890;2023-08-20T15:30:22;31.00;25.10
19359;DHT22;9815;52.334;20.890;2023-08-20T15:32:52;31.10;25.10
19359;DHT22;9815;52.334;20.890;2023-08-20T15:35:21;31.20;25.40
19359;DHT22;9815;52.334;20.890;2023-08-20T15:37:49;31.20;24.40
19359;DHT22;9815;52.334;20.890;2023-08-20T15:40:17;31.20;24.70
19359;DHT22;9815;52.334;20.890;2023-08-20T15:42:45;31.10;24.80
19359;DHT22;9815;52.334;20.890;2023-08-20T15:45:15;30.90;25.60